createdAt,value
2022-11-23T00:01:22.653Z,99654.38
2022-11-23T00:03:58.370Z,99653.27
2022-11-23T00:06:30.502Z,99652.88
2022-11-23T00:09:02.451Z,99649.16
2022-11-23T00:11:37.465Z,99646.14
2022-11-23T00:14:09.655Z,99647.33
2022-11-23T00:16:43.405Z,99646.38
2022-11-23T00:19:15.163Z,99642.87
2022-11-23T00:21:46.969Z,99637.70
2022-11-23T00:24:19.978Z,99637.75
2022-11-23T00:26:51.935Z,99634.23
2022-11-23T00:29:24.670Z,99636.68
2022-11-23T00:31:56.540Z,99639.48
2022-11-23T00:34:28.549Z,99630.38
2022-11-23T00:37:00.918Z,99623.83
2022-11-23T00:39:34.315Z,99640.45
2022-11-23T00:42:07.598Z,99641.69
2022-11-23T00:44:40.673Z,99640.20
2022-11-23T00:47:14.174Z,99641.07
2022-11-23T00:49:46.854Z,99645.02
2022-11-23T00:52:18.773Z,99653.04
2022-11-23T00:54:51.417Z,99646.91
2022-11-23T00:57:23.563Z,99647.38
2022-11-23T00:59:55.425Z,99646.62
2022-11-23T01:02:32.078Z,99644.90
2022-11-23T01:05:04.220Z,99647.32
2022-11-23T01:07:36.309Z,99643.56
2022-11-23T01:10:14.278Z,99647.58
2022-11-23T01:12:46.414Z,99650.38
2022-11-23T01:15:19.722Z,99650.74
2022-11-23T01:17:52.289Z,99652.15
2022-11-23T01:20:23.994Z,99653.91
2022-11-23T01:22:56.677Z,99649.31
2022-11-23T01:25:28.550Z,99651.71
2022-11-23T01:28:06.667Z,99655.59
2022-11-23T01:30:38.813Z,99657.59
2022-11-23T01:33:10.609Z,99660.68
2022-11-23T01:35:42.410Z,99664.09
2022-11-23T01:38:18.329Z,99663.90
2022-11-23T01:40:51.992Z,99667.66
2022-11-23T01:43:24.813Z,99668.16
2022-11-23T01:46:03.025Z,99668.90
2022-11-23T01:48:39.334Z,99671.31
2022-11-23T01:51:16.285Z,99674.42
2022-11-23T01:53:53.061Z,99673.34
2022-11-23T01:56:30.441Z,99670.39
2022-11-23T01:59:07.460Z,99668.39
2022-11-23T02:01:40.637Z,99662.85
2022-11-23T02:04:17.802Z,99653.57
2022-11-23T02:06:52.540Z,99646.98
2022-11-23T02:09:24.652Z,99635.48
2022-11-23T02:11:57.220Z,99648.38
2022-11-23T02:14:30.697Z,99648.70
2022-11-23T02:17:08.008Z,99655.86
2022-11-23T02:19:49.253Z,99656.65
2022-11-23T02:22:31.383Z,99657.13
2022-11-23T02:25:08.821Z,99656.14
2022-11-23T02:27:46.748Z,99654.05
2022-11-23T02:30:21.330Z,99648.86
2022-11-23T02:32:53.404Z,99656.84
2022-11-23T02:35:25.982Z,99658.62
2022-11-23T02:37:57.789Z,99663.57
2022-11-23T02:40:33.504Z,99666.67
2022-11-23T02:46:04.244Z,99659.39
2022-11-23T02:48:36.563Z,99660.26
2022-11-23T02:51:10.059Z,99655.16
2022-11-23T02:53:44.147Z,99655.02
2022-11-23T02:56:16.123Z,99659.45
2022-11-23T02:58:47.814Z,99662.99
2022-11-23T03:01:20.030Z,99664.09
2022-11-23T03:03:52.515Z,99659.52
2022-11-23T03:06:24.383Z,99664.72
2022-11-23T03:08:56.818Z,99674.30
2022-11-23T03:11:29.961Z,99677.58
2022-11-23T03:14:02.047Z,99677.48
2022-11-23T03:16:38.388Z,99674.20
2022-11-23T03:19:11.548Z,99669.44
2022-11-23T03:21:44.369Z,99666.30
2022-11-23T03:24:17.394Z,99663.69
2022-11-23T03:26:51.166Z,99662.73
2022-11-23T03:29:30.830Z,99658.33
2022-11-23T03:32:07.985Z,99665.23
2022-11-23T03:34:40.985Z,99672.86
2022-11-23T03:37:13.701Z,99679.44
2022-11-23T03:39:47.579Z,99673.41
2022-11-23T03:42:30.177Z,99667.17
2022-11-23T03:45:02.721Z,99665.39
2022-11-23T03:47:35.411Z,99672.18
2022-11-23T03:50:14.345Z,99678.44
2022-11-23T03:52:46.391Z,99681.39
2022-11-23T03:55:22.100Z,99682.77
2022-11-23T03:58:00.376Z,99680.77
2022-11-23T04:00:34.375Z,99682.94
2022-11-23T04:03:07.614Z,99686.87
2022-11-23T04:06:09.074Z,99684.21
2022-11-23T04:09:02.283Z,99662.83
2022-11-23T04:11:55.802Z,99672.42
2022-11-23T04:14:27.870Z,99672.31
2022-11-23T04:17:01.168Z,99668.98
2022-11-23T04:19:33.485Z,99670.69
2022-11-23T04:22:05.912Z,99670.30
2022-11-23T04:24:43.079Z,99665.55
2022-11-23T04:27:14.970Z,99670.03
2022-11-23T04:29:47.720Z,99673.98
2022-11-23T04:32:22.156Z,99672.41
2022-11-23T04:34:54.523Z,99675.26
2022-11-23T04:37:26.760Z,99677.64
2022-11-23T04:39:58.647Z,99682.74
2022-11-23T04:42:42.629Z,99687.98
2022-11-23T04:45:14.990Z,99687.42
2022-11-23T04:47:49.956Z,99689.83
2022-11-23T04:50:22.435Z,99688.00
2022-11-23T04:52:57.884Z,99688.02
2022-11-23T04:55:36.684Z,99685.02
2022-11-23T04:58:09.264Z,99688.96
2022-11-23T05:00:42.604Z,99691.01
2022-11-23T05:03:16.435Z,99689.95
2022-11-23T05:05:50.709Z,99685.64
2022-11-23T05:08:25.795Z,99690.36
2022-11-23T05:11:13.431Z,99690.98
2022-11-23T05:13:46.310Z,99698.23
2022-11-23T05:16:19.392Z,99704.51
2022-11-23T05:18:52.631Z,99703.80
2022-11-23T05:21:27.644Z,99700.59
2022-11-23T05:24:00.091Z,99705.28
2022-11-23T05:26:33.586Z,99706.52
2022-11-23T05:29:05.648Z,99705.56
2022-11-23T05:31:37.619Z,99705.98
2022-11-23T05:34:10.438Z,99708.04
2022-11-23T05:36:49.192Z,99710.76
2022-11-23T05:39:25.528Z,99707.86
2022-11-23T05:41:59.089Z,99705.07
2022-11-23T05:44:44.291Z,99701.26
2022-11-23T05:47:26.485Z,99705.66
2022-11-23T05:49:59.724Z,99712.47
2022-11-23T05:52:32.628Z,99712.17
2022-11-23T05:55:08.303Z,99719.83
2022-11-23T05:57:40.562Z,99709.13
2022-11-23T06:00:13.845Z,99719.03
2022-11-23T06:02:50.838Z,99714.98
2022-11-23T06:05:26.968Z,99716.55
2022-11-23T06:07:59.439Z,99716.35
2022-11-23T06:10:32.765Z,99723.94
2022-11-23T06:13:09.454Z,99725.23
2022-11-23T06:15:41.487Z,99732.92
2022-11-23T06:18:15.641Z,99733.84
2022-11-23T06:20:55.311Z,99735.21
2022-11-23T06:23:28.186Z,99737.14
2022-11-23T06:26:11.977Z,99738.86
2022-11-23T06:28:45.949Z,99741.23
2022-11-23T06:31:19.602Z,99746.55
2022-11-23T06:33:54.042Z,99747.99
2022-11-23T06:36:27.439Z,99748.77
2022-11-23T06:39:00.378Z,99754.61
2022-11-23T06:41:33.116Z,99763.39
2022-11-23T06:44:06.743Z,99765.60
2022-11-23T06:46:47.396Z,99772.14
2022-11-23T06:49:24.191Z,99767.84
2022-11-23T06:52:13.928Z,99769.26
2022-11-23T06:54:47.121Z,99770.55
2022-11-23T06:57:20.405Z,99764.67
2022-11-23T07:00:02.445Z,99767.10
2022-11-23T07:02:39.161Z,99767.14
2022-11-23T07:05:12.143Z,99765.39
2022-11-23T07:07:43.891Z,99764.53
2022-11-23T07:10:21.557Z,99752.48
2022-11-23T07:13:03.745Z,99769.95
2022-11-23T07:15:36.205Z,99770.91
2022-11-23T07:18:08.957Z,99771.63
2022-11-23T07:20:41.040Z,99767.75
2022-11-23T07:23:14.142Z,99760.10
2022-11-23T07:25:46.490Z,99769.27
2022-11-23T07:28:21.544Z,99770.36
2022-11-23T07:30:53.745Z,99775.20
2022-11-23T07:33:26.110Z,99783.80
2022-11-23T07:35:58.004Z,99783.54
2022-11-23T07:38:29.749Z,99773.10
2022-11-23T07:41:03.825Z,99783.99
2022-11-23T07:43:54.654Z,99786.77
2022-11-23T07:46:26.807Z,99786.63
2022-11-23T07:49:01.708Z,99783.60
2022-11-23T07:51:34.030Z,99791.57
2022-11-23T07:54:06.416Z,99792.39
2022-11-23T07:56:38.384Z,99791.32
2022-11-23T07:59:10.533Z,99789.65
2022-11-23T08:01:42.886Z,99792.75
2022-11-23T08:04:14.630Z,99788.65
2022-11-23T08:06:46.413Z,99793.42
2022-11-23T08:09:19.216Z,99791.34
2022-11-23T08:11:51.305Z,99793.11
2022-11-23T08:14:23.816Z,99795.94
2022-11-23T08:16:55.657Z,99795.88
2022-11-23T08:19:27.377Z,99791.73
2022-11-23T08:21:59.190Z,99792.34
2022-11-23T08:24:31.270Z,99795.16
2022-11-23T08:27:03.432Z,99794.04
2022-11-23T08:29:35.559Z,99796.23
2022-11-23T08:32:07.930Z,99792.23
2022-11-23T08:34:39.800Z,99791.40
2022-11-23T08:37:11.758Z,99796.45
2022-11-23T08:39:43.650Z,99791.21
2022-11-23T08:42:15.504Z,99792.95
2022-11-23T08:44:47.388Z,99800.33
2022-11-23T08:47:19.799Z,99801.16
2022-11-23T08:49:51.645Z,99804.66
2022-11-23T08:52:23.400Z,99801.69
2022-11-23T08:54:55.569Z,99804.29
2022-11-23T08:57:29.663Z,99805.98
2022-11-23T09:00:01.993Z,99808.89
2022-11-23T09:02:34.255Z,99808.02
2022-11-23T09:05:07.724Z,99808.77
2022-11-23T09:07:40.033Z,99808.21
2022-11-23T09:10:18.028Z,99808.27
2022-11-23T09:12:51.207Z,99808.85
2022-11-23T09:15:23.398Z,99804.80
2022-11-23T09:17:55.171Z,99804.73
2022-11-23T09:20:27.286Z,99806.31
2022-11-23T09:22:59.140Z,99796.17
2022-11-23T09:25:31.263Z,99807.27
2022-11-23T09:28:04.484Z,99806.57
2022-11-23T09:30:36.468Z,99810.03
2022-11-23T09:33:08.430Z,99810.30
2022-11-23T09:35:43.820Z,99807.46
2022-11-23T09:38:17.031Z,99804.38
2022-11-23T09:40:57.537Z,99801.53
2022-11-23T09:43:42.212Z,99799.90
2022-11-23T09:46:23.155Z,99800.36
2022-11-23T09:49:11.735Z,99802.52
2022-11-23T09:51:45.375Z,99803.92
2022-11-23T09:54:30.530Z,99800.89
2022-11-23T09:57:04.627Z,99800.30
2022-11-23T09:59:44.886Z,99796.20
2022-11-23T10:02:23.159Z,99794.77
2022-11-23T10:04:57.043Z,99788.90
2022-11-23T10:07:40.954Z,99785.35
2022-11-23T10:10:26.712Z,99787.05
2022-11-23T10:13:16.909Z,99788.66
2022-11-23T10:16:03.061Z,99786.46
2022-11-23T10:18:45.268Z,99794.52
2022-11-23T10:21:30.049Z,99797.48
2022-11-23T10:24:14.563Z,99793.02
2022-11-23T10:26:48.254Z,99788.74
2022-11-23T10:29:28.651Z,99787.35
2022-11-23T10:32:02.196Z,99781.92
2022-11-23T10:34:47.175Z,99780.41
2022-11-23T10:37:20.729Z,99783.30
2022-11-23T10:39:52.652Z,99779.27
2022-11-23T10:42:30.364Z,99778.79
2022-11-23T10:45:02.781Z,99767.63
2022-11-23T10:47:41.329Z,99780.00
2022-11-23T10:50:30.373Z,99780.98
2022-11-23T10:53:20.192Z,99780.67
2022-11-23T10:55:55.050Z,99769.60
2022-11-23T10:58:31.389Z,99783.77
2022-11-23T11:01:06.120Z,99784.50
2022-11-23T11:03:36.730Z,99782.73
2022-11-23T11:06:10.524Z,99781.11
2022-11-23T11:08:53.564Z,99774.73
2022-11-23T11:11:28.846Z,99775.33
2022-11-23T11:14:18.594Z,99763.52
2022-11-23T11:16:52.261Z,99762.11
2022-11-23T11:19:31.131Z,99749.69
2022-11-23T11:22:05.891Z,99750.38
2022-11-23T11:24:38.539Z,99751.15
2022-11-23T11:27:17.159Z,99740.83
2022-11-23T11:29:52.305Z,99745.31
2022-11-23T11:32:31.111Z,99748.20
2022-11-23T11:35:12.831Z,99746.18
2022-11-23T11:37:48.251Z,99747.08
2022-11-23T11:40:25.289Z,99739.25
2022-11-23T11:43:03.828Z,99744.44
2022-11-23T11:45:46.366Z,99742.23
2022-11-23T11:48:31.116Z,99743.95
2022-11-23T11:51:07.964Z,99743.20
2022-11-23T11:53:50.446Z,99743.38
2022-11-23T11:56:26.964Z,99742.05
2022-11-23T11:59:07.620Z,99742.24
2022-11-23T12:01:45.898Z,99740.73
2022-11-23T12:04:24.675Z,99741.48
2022-11-23T12:07:04.218Z,99737.58
2022-11-23T12:09:41.736Z,99717.91
2022-11-23T12:12:17.697Z,99737.80
2022-11-23T12:14:49.505Z,99738.98
2022-11-23T12:17:53.405Z,99740.23
2022-11-23T12:20:30.207Z,99743.89
2022-11-23T12:23:18.981Z,99749.57
2022-11-23T12:26:03.706Z,99749.51
2022-11-23T12:28:51.322Z,99745.38
2022-11-23T12:31:31.397Z,99750.02
2022-11-23T12:34:18.899Z,99750.89
2022-11-23T12:37:12.944Z,99754.42
2022-11-23T12:40:05.021Z,99752.97
2022-11-23T12:42:43.612Z,99756.67
2022-11-23T12:45:28.064Z,99753.47
2022-11-23T12:48:15.483Z,99755.81
2022-11-23T12:50:54.637Z,99760.77
2022-11-23T12:53:39.023Z,99753.23
2022-11-23T12:56:20.969Z,99762.61
2022-11-23T12:58:54.960Z,99757.82
2022-11-23T13:01:32.252Z,99754.75
2022-11-23T13:04:48.556Z,99758.59
2022-11-23T13:07:48.860Z,99745.71
2022-11-23T13:10:49.231Z,99759.46
2022-11-23T13:13:49.168Z,99755.52
2022-11-23T13:16:55.675Z,99760.88
2022-11-23T13:19:42.748Z,99762.99
2022-11-23T13:22:20.416Z,99764.02
2022-11-23T13:25:16.384Z,99759.66
2022-11-23T13:28:02.322Z,99764.35
2022-11-23T13:31:07.351Z,99768.48
2022-11-23T13:33:38.196Z,99772.95
2022-11-23T13:36:19.578Z,99771.75
2022-11-23T13:38:52.510Z,99772.13
2022-11-23T13:41:55.495Z,99764.89
2022-11-23T13:44:32.184Z,99765.44
2022-11-23T13:47:07.820Z,99760.48
2022-11-23T13:49:44.931Z,99759.27
2022-11-23T13:52:32.494Z,99761.63
2022-11-23T13:55:10.078Z,99759.45
2022-11-23T13:57:44.040Z,99756.82
2022-11-23T14:00:50.061Z,99761.09
2022-11-23T14:03:53.071Z,99766.88
2022-11-23T14:06:29.801Z,99773.66
2022-11-23T14:09:07.810Z,99771.73
2022-11-23T14:11:51.910Z,99773.11
2022-11-23T14:14:28.975Z,99760.65
2022-11-23T14:17:20.827Z,99775.70
2022-11-23T14:20:11.004Z,99772.20
2022-11-23T14:22:56.516Z,99778.06
2022-11-23T14:25:46.363Z,99757.86
2022-11-23T14:28:33.846Z,99777.84
2022-11-23T14:31:22.896Z,99787.38
2022-11-23T14:34:02.192Z,99789.28
2022-11-23T14:36:42.615Z,99801.23
2022-11-23T14:39:49.580Z,99799.81
2022-11-23T14:42:24.433Z,99798.52
2022-11-23T14:44:55.440Z,99799.84
2022-11-23T14:47:31.816Z,99805.42
2022-11-23T14:50:03.667Z,99808.77
2022-11-23T14:52:38.204Z,99813.91
2022-11-23T14:55:17.666Z,99813.36
2022-11-23T14:57:52.578Z,99814.34
2022-11-23T15:00:28.395Z,99819.90
2022-11-23T15:03:27.153Z,99819.73
2022-11-23T15:06:04.816Z,99822.48
2022-11-23T15:08:44.686Z,99820.71
2022-11-23T15:11:19.110Z,99820.73
2022-11-23T15:13:52.872Z,99821.04
2022-11-23T15:16:24.761Z,99820.04
2022-11-23T15:18:57.339Z,99822.73
2022-11-23T15:21:29.971Z,99822.32
2022-11-23T15:24:01.879Z,99826.66
2022-11-23T15:26:47.815Z,99828.64
2022-11-23T15:29:37.935Z,99826.02
2022-11-23T15:32:34.212Z,99829.70
2022-11-23T15:35:13.100Z,99830.38
2022-11-23T15:37:47.006Z,99826.20
2022-11-23T15:40:20.556Z,99830.48
2022-11-23T15:42:53.380Z,99827.69
2022-11-23T15:45:40.498Z,99830.07
2022-11-23T15:48:16.611Z,99829.96
2022-11-23T15:50:52.883Z,99826.48
2022-11-23T15:53:29.075Z,99825.31
2022-11-23T15:56:04.537Z,99823.84
2022-11-23T15:58:36.571Z,99828.55
2022-11-23T16:01:14.731Z,99824.59
2022-11-23T16:03:52.639Z,99821.78
2022-11-23T16:06:36.411Z,99818.80
2022-11-23T16:09:54.606Z,99820.17
2022-11-23T16:12:29.081Z,99818.40
2022-11-23T16:15:22.629Z,99822.75
2022-11-23T16:17:54.833Z,99822.63
2022-11-23T16:20:28.250Z,99824.54
2022-11-23T16:23:01.853Z,99822.57
2022-11-23T16:25:35.873Z,99824.42
2022-11-23T16:28:16.936Z,99826.52
2022-11-23T16:30:49.076Z,99825.52
2022-11-23T16:33:23.065Z,99825.89
2022-11-23T16:35:56.317Z,99817.98
2022-11-23T16:38:28.143Z,99829.65
2022-11-23T16:41:00.200Z,99830.15
2022-11-23T16:43:32.232Z,99836.88
2022-11-23T16:46:04.555Z,99836.14
2022-11-23T16:48:42.391Z,99830.80
2022-11-23T16:51:15.175Z,99844.92
2022-11-23T16:54:12.354Z,99845.29
2022-11-23T16:56:41.256Z,99841.27
2022-11-23T16:59:18.934Z,99842.95
2022-11-23T17:01:57.069Z,99842.77
2022-11-23T17:04:31.420Z,99841.20
2022-11-23T17:07:03.702Z,99836.83
2022-11-23T17:09:35.907Z,99833.70
2022-11-23T17:12:15.311Z,99831.73
2022-11-23T17:14:49.188Z,99834.55
2022-11-23T17:17:23.079Z,99836.95
2022-11-23T17:19:59.731Z,99836.04
2022-11-23T17:22:34.491Z,99837.13
2022-11-23T17:25:13.104Z,99837.39
2022-11-23T17:27:48.285Z,99835.20
2022-11-23T17:30:22.927Z,99832.89
2022-11-23T17:32:55.154Z,99831.00
2022-11-23T17:35:27.352Z,99830.80
2022-11-23T17:37:59.422Z,99818.86
2022-11-23T17:40:31.312Z,99829.30
2022-11-23T17:43:03.203Z,99830.39
2022-11-23T17:45:35.639Z,99828.90
2022-11-23T17:48:10.778Z,99831.63
2022-11-23T17:50:42.874Z,99834.03
2022-11-23T17:53:14.770Z,99833.89
2022-11-23T17:55:47.100Z,99832.33
2022-11-23T17:58:19.184Z,99829.89
2022-11-23T18:00:51.511Z,99832.98
2022-11-23T18:03:23.428Z,99836.36
2022-11-23T18:05:55.775Z,99839.48
2022-11-23T18:08:27.932Z,99835.05
2022-11-23T18:11:00.559Z,99834.07
2022-11-23T18:13:32.493Z,99835.64
2022-11-23T18:16:04.664Z,99832.52
2022-11-23T18:18:37.336Z,99822.63
2022-11-23T18:21:10.941Z,99836.58
2022-11-23T18:23:43.477Z,99833.52
2022-11-23T18:26:21.780Z,99839.77
2022-11-23T18:28:54.367Z,99839.27
2022-11-23T18:31:26.654Z,99842.91
2022-11-23T18:33:58.612Z,99844.57
2022-11-23T18:36:30.656Z,99843.14
2022-11-23T18:39:02.787Z,99849.13
2022-11-23T18:41:34.640Z,99853.70
2022-11-23T18:44:06.835Z,99858.13
2022-11-23T18:46:39.356Z,99861.27
2022-11-23T18:49:12.006Z,99863.60
2022-11-23T18:51:44.046Z,99866.60
2022-11-23T18:54:15.889Z,99868.48
2022-11-23T18:56:48.245Z,99860.63
2022-11-23T18:59:49.950Z,99868.11
2022-11-23T19:02:13.652Z,99865.37
2022-11-23T19:04:45.709Z,99868.02
2022-11-23T19:07:20.921Z,99861.17
2022-11-23T19:09:57.012Z,99856.67
2022-11-23T19:12:30.477Z,99859.86
2022-11-23T19:15:02.667Z,99865.81
2022-11-23T19:17:34.948Z,99864.86
2022-11-23T19:20:09.899Z,99869.23
2022-11-23T19:22:42.249Z,99868.64
2022-11-23T19:25:14.171Z,99868.14
2022-11-23T19:27:48.960Z,99856.88
2022-11-23T19:30:21.004Z,99870.14
2022-11-23T19:32:52.964Z,99874.90
2022-11-23T19:35:27.896Z,99872.61
2022-11-23T19:37:59.715Z,99874.16
2022-11-23T19:40:31.666Z,99875.29
2022-11-23T19:43:03.575Z,99872.39
2022-11-23T19:45:35.379Z,99877.20
2022-11-23T19:48:07.869Z,99872.55
2022-11-23T19:50:39.815Z,99878.70
2022-11-23T19:53:13.085Z,99874.81
2022-11-23T19:55:45.230Z,99875.99
2022-11-23T19:58:17.689Z,99876.48
2022-11-23T20:00:52.044Z,99877.94
2022-11-23T20:03:23.888Z,99881.08
2022-11-23T20:06:02.450Z,99878.59
2022-11-23T20:08:34.675Z,99881.91
2022-11-23T20:11:10.464Z,99880.48
2022-11-23T20:13:43.289Z,99884.86
2022-11-23T20:16:16.692Z,99886.00
2022-11-23T20:18:52.424Z,99883.99
2022-11-23T20:21:24.440Z,99888.08
2022-11-23T20:24:04.820Z,99894.27
2022-11-23T20:26:38.048Z,99892.11
2022-11-23T20:29:10.882Z,99894.09
2022-11-23T20:31:42.894Z,99893.97
2022-11-23T20:34:19.967Z,99899.45
2022-11-23T20:36:52.633Z,99897.17
2022-11-23T20:39:24.680Z,99902.12
2022-11-23T20:41:58.723Z,99903.92
2022-11-23T20:44:33.867Z,99907.50
2022-11-23T20:47:06.156Z,99902.34
2022-11-23T20:49:38.305Z,99903.02
2022-11-23T20:52:10.316Z,99905.83
2022-11-23T20:54:42.222Z,99907.38
2022-11-23T20:57:14.401Z,99907.89
2022-11-23T20:59:46.404Z,99908.73
2022-11-23T21:02:18.564Z,99909.50
2022-11-23T21:04:50.995Z,99912.83
2022-11-23T21:07:22.948Z,99911.34
2022-11-23T21:09:56.513Z,99912.19
2022-11-23T21:12:50.370Z,99903.86
2022-11-23T21:15:22.443Z,99912.73
2022-11-23T21:17:54.263Z,99913.39
2022-11-23T21:20:31.314Z,99919.53
2022-11-23T21:23:08.718Z,99910.30
2022-11-23T21:25:40.670Z,99926.36
2022-11-23T21:28:12.556Z,99927.05
2022-11-23T21:30:45.062Z,99925.61
2022-11-23T21:33:17.091Z,99923.19
2022-11-23T21:35:48.852Z,99924.29
2022-11-23T21:38:23.474Z,99921.02
2022-11-23T21:41:00.121Z,99928.15
2022-11-23T21:43:32.371Z,99923.89
2022-11-23T21:46:05.874Z,99926.04
2022-11-23T21:48:38.968Z,99922.98
2022-11-23T21:51:14.704Z,99927.34
2022-11-23T21:53:46.966Z,99933.23
2022-11-23T21:56:20.179Z,99937.15
2022-11-23T21:58:52.350Z,99941.67
2022-11-23T22:01:26.224Z,99941.23
2022-11-23T22:03:58.669Z,99936.09
2022-11-23T22:06:31.269Z,99933.59
2022-11-23T22:09:05.128Z,99935.48
2022-11-23T22:11:39.498Z,99939.98
2022-11-23T22:14:12.746Z,99938.04
2022-11-23T22:16:46.136Z,99945.74
2022-11-23T22:19:18.781Z,99943.88
2022-11-23T22:21:50.884Z,99950.77
2022-11-23T22:24:23.240Z,99956.30
2022-11-23T22:26:55.196Z,99958.84
2022-11-23T22:29:27.021Z,99958.48
2022-11-23T22:31:59.200Z,99959.55
2022-11-23T22:34:35.297Z,99958.69
2022-11-23T22:37:10.730Z,99957.95
2022-11-23T22:39:42.911Z,99955.91
2022-11-23T22:42:15.461Z,99954.13
2022-11-23T22:44:47.608Z,99955.90
2022-11-23T22:47:19.404Z,99959.71
2022-11-23T22:49:51.703Z,99954.40
2022-11-23T22:52:23.552Z,99956.30
2022-11-23T22:54:55.503Z,99959.52
2022-11-23T22:57:27.445Z,99963.63
2022-11-23T22:59:59.214Z,99963.58
2022-11-23T23:02:31.693Z,99959.20
2022-11-23T23:05:04.187Z,99965.16
2022-11-23T23:07:36.260Z,99966.31
2022-11-23T23:10:11.150Z,99967.98
2022-11-23T23:12:43.011Z,99953.12
2022-11-23T23:15:15.199Z,99967.75
2022-11-23T23:17:47.839Z,99955.19
2022-11-23T23:20:19.717Z,99966.08
2022-11-23T23:22:51.661Z,99965.87
2022-11-23T23:25:23.667Z,99967.73
2022-11-23T23:27:55.510Z,99966.40
2022-11-23T23:30:27.767Z,99967.52
2022-11-23T23:33:00.154Z,99956.98
2022-11-23T23:35:46.147Z,99953.05
2022-11-23T23:38:20.645Z,99950.92
2022-11-23T23:40:55.824Z,99949.23
2022-11-23T23:43:28.830Z,99952.89
2022-11-23T23:46:02.175Z,99949.19
2022-11-23T23:48:35.916Z,99949.74
2022-11-23T23:51:09.908Z,99954.44
2022-11-23T23:53:42.506Z,99960.43
2022-11-23T23:56:17.731Z,99957.91
2022-11-23T23:58:49.806Z,99956.16
